Rosecrans Memorial Airport
KSTJ : rendu visible

Aérodrome :











RETROUVEZ-NOUS SUR...

 
LOGIN :

S'inscrire | Disclaimer

   EN    FR    IT 

 









Légende :    VFR   VFR Marginal   IFR   IFR Intensif   IFR Très Intensif
Visi : 
Plafond : 
>= 8 km
>= 3000ft
5 à 8 km
1000 à 3000 ft
1500m à 5 km
500 à 1000 ft
800 à 1500m
200 à 500 ft
< 800m
< 200 ft
Symboles :   Orages  Brouillard  Fortes neiges  Fortes précipitations  Vent > 20 kt






- Altitude de l'aérodrome : 826 ft


KSTJ - Rosecrans Memorial

DERNIER METAR :
  • 290853Z AUTO 29016G24KT 10SM SCT032 07/02 A2978 RMK AO2 PK WND 29030/0803 SLP082 T00720017 53026

METARs EXPIRÉS :
  • 290805Z AUTO 29020G30KT 10SM OVC030 08/02 A2976 RMK AO2 PK WND 29030/0803 T00830022
  • 290753Z AUTO 29018G28KT 10SM OVC029 08/02 A2975 RMK AO2 PK WND 28030/0709 SLP072 T00780022
  • 290743Z AUTO 29018G30KT 10SM OVC029 08/02 A2975 RMK AO2 PK WND 28030/0709 T00780022
  • 290653Z AUTO 28017G31KT 10SM SCT027 OVC034 08/02 A2972 RMK AO2 PK WND 28032/0613 SLP063 T00780022

TAF KSTJ
Valide du 29 à 06h jusqu'au 30 à 06h UTC


290534Z 2906/3006 27020G30KT P6SM OVC025
FM290900 28015KT P6SM SCT040 BKN120 WS020/31040KT
FM291200 27016KT P6SM SKC



MET'MAP, la Météo Aéronautique d'un coup d'oeil ! - Copyright ORBIFLY Décembre 2007 - Disclaimer

ORBIFLY MET'MAP TEAM :

Programmation & Développement : Alexandra Zaïnal
Sur une idée originale de : Baudouin d'Aumeries
Assistance à la programmation : Marc-Olivier Méhu
Soutien technique & logistique : Manuel Goepfert

Contact : metmap@orbifly.com




SOURCES & CREDITS :

   NOAA       Earth
Advisory